Time;durP1;ratioP1;P1;durP2;ratioP2;P2;SDS_P1;SDS_P2;PMS_P1;PMS_P2;Temp;Humidity;BMP_temperature;BMP_pressure;BME280_temperature;BME280_humidity;BME280_pressure;Samples;Min_cycle;Max_cycle;Signal;HPM_P1;HPM_P2
2022/10/30 00:01:12;;;;;;;35.58;25.80;;;14.00;94.80;;;;;;5052218;28;20056;-48
2022/10/30 00:03:39;;;;;;;34.40;24.20;;;14.00;94.80;;;;;;5053720;28;20032;-47
2022/10/30 00:06:09;;;;;;;34.25;24.80;;;14.00;94.70;;;;;;5053380;28;20260;-49
2022/10/30 00:08:36;;;;;;;39.72;25.52;;;14.00;94.70;;;;;;5043880;28;20083;-48
2022/10/30 00:11:12;;;;;;;30.80;23.10;;;13.90;94.70;;;;;;5053531;28;20507;-51
2022/10/30 00:13:41;;;;;;;33.13;23.33;;;13.90;94.60;;;;;;5052612;28;20029;-50
2022/10/30 00:16:08;;;;;;;34.80;23.45;;;13.90;94.60;;;;;;5053386;28;20023;-49
2022/10/30 00:18:37;;;;;;;34.47;24.10;;;13.90;94.60;;;;;;5035936;28;20033;-53
2022/10/30 00:21:13;;;;;;;32.50;23.80;;;13.90;94.60;;;;;;5052945;28;20029;-49
2022/10/30 00:23:50;;;;;;;29.08;23.92;;;13.90;94.60;;;;;;5053716;28;20351;-50
2022/10/30 00:26:20;;;;;;;30.85;22.73;;;13.90;94.50;;;;;;5053199;28;20082;-49
2022/10/30 00:28:50;;;;;;;;;;;13.90;94.40;;;;;;5053221;28;20025;-49
2022/10/30 00:31:17;;;;;;;30.42;21.00;;;13.80;94.40;;;;;;5052876;28;19909;-51
2022/10/30 00:33:51;;;;;;;33.15;22.65;;;13.80;94.40;;;;;;5052459;28;20102;-49
2022/10/30 00:36:21;;;;;;;34.03;22.40;;;13.80;94.30;;;;;;5052732;28;20036;-49
2022/10/30 00:38:47;;;;;;;31.35;20.63;;;13.80;94.30;;;;;;5052743;28;20097;-50
2022/10/30 00:41:19;;;;;;;30.90;20.42;;;13.80;94.30;;;;;;5052146;28;20104;-50
2022/10/30 00:43:46;;;;;;;29.88;19.83;;;13.80;94.30;;;;;;5052862;28;20446;-50
2022/10/30 00:46:35;;;;;;;25.92;20.63;;;13.80;94.20;;;;;;5051576;28;20047;-49
2022/10/30 00:49:15;;;;;;;31.15;20.38;;;13.70;94.20;;;;;;5031849;28;20038;-50
2022/10/30 00:51:47;;;;;;;32.08;20.58;;;13.70;94.10;;;;;;5014202;28;20372;-49
2022/10/30 00:54:16;;;;;;;27.65;19.40;;;13.70;94.10;;;;;;5012304;28;20084;-50
2022/10/30 00:56:49;;;;;;;37.47;21.83;;;13.70;94.10;;;;;;5019917;28;20029;-52
2022/10/30 00:59:23;;;;;;;27.95;19.80;;;13.70;94.10;;;;;;5032556;28;20060;-51
2022/10/30 01:01:55;;;;;;;26.48;18.95;;;13.70;94.00;;;;;;5032287;28;20033;-49
2022/10/30 01:04:24;;;;;;;34.63;20.98;;;13.70;94.00;;;;;;5033211;28;20354;-49
2022/10/30 01:06:51;;;;;;;22.35;19.00;;;13.60;94.00;;;;;;5031860;28;20021;-50
2022/10/30 01:09:22;;;;;;;29.17;18.98;;;13.70;93.90;;;;;;5032350;28;20034;-50
2022/10/30 01:11:49;;;;;;;30.00;21.27;;;13.70;94.00;;;;;;5032791;28;20113;-49
2022/10/30 01:14:19;;;;;;;28.02;20.17;;;13.70;93.90;;;;;;5030675;28;20060;-49
2022/10/30 01:17:07;;;;;;;26.30;19.45;;;13.60;93.90;;;;;;5047763;28;20083;-49
2022/10/30 01:20:00;;;;;;;21.67;17.00;;;13.70;93.90;;;;;;5015941;28;20056;-51
2022/10/30 01:23:03;;;;;;;24.95;18.67;;;13.70;93.80;;;;;;5032991;28;20101;-48
2022/10/30 01:25:47;;;;;;;27.70;19.13;;;13.70;93.70;;;;;;5031761;28;20343;-48
2022/10/30 01:28:53;;;;;;;28.02;20.60;;;13.70;93.60;;;;;;5032724;28;20029;-49
2022/10/30 01:31:42;;;;;;;26.02;18.70;;;13.70;93.60;;;;;;5031534;28;20044;-48
2022/10/30 01:34:34;;;;;;;25.83;18.35;;;13.70;93.50;;;;;;5030698;28;20040;-48
2022/10/30 01:37:31;;;;;;;22.13;17.35;;;13.60;93.50;;;;;;5033192;28;20136;-51
2022/10/30 01:40:07;;;;;;;24.67;17.45;;;13.60;93.40;;;;;;5021394;28;20119;-49
2022/10/30 01:42:52;;;;;;;30.67;17.00;;;13.60;93.40;;;;;;5032123;28;20041;-49
2022/10/30 01:45:48;;;;;;;24.02;17.52;;;13.60;93.30;;;;;;5032363;28;20026;-48
2022/10/30 01:48:52;;;;;;;21.17;17.73;;;13.60;93.30;;;;;;5030783;28;20120;-48
2022/10/30 01:51:56;;;;;;;28.40;18.23;;;13.50;93.20;;;;;;5047124;28;20060;-48
2022/10/30 01:54:45;;;;;;;21.52;16.80;;;13.50;93.20;;;;;;5050686;28;20068;-52
2022/10/30 01:57:49;;;;;;;24.67;15.82;;;13.50;93.20;;;;;;5052555;28;20035;-50
2022/10/30 02:00:18;;;;;;;27.50;17.75;;;13.40;93.10;;;;;;5052000;28;20032;-48
2022/10/30 02:02:48;;;;;;;37.42;19.65;;;13.40;93.10;;;;;;5050260;28;20029;-47
2022/10/30 02:05:41;;;;;;;25.10;15.98;;;13.40;93.20;;;;;;5052670;28;20048;-48
2022/10/30 02:08:08;;;;;;;24.40;16.33;;;13.40;93.20;;;;;;5056101;28;20036;-49
2022/10/30 02:10:36;;;;;;;24.15;16.30;;;13.40;93.20;;;;;;5054542;28;20454;-49
2022/10/30 02:13:04;;;;;;;27.38;18.15;;;13.40;93.20;;;;;;5054586;28;20027;-47
2022/10/30 02:15:30;;;;;;;24.92;15.80;;;13.40;93.20;;;;;;5034140;28;20112;-48
2022/10/30 02:17:57;;;;;;;23.80;17.65;;;13.40;93.10;;;;;;5038904;28;20412;-47
2022/10/30 02:20:25;;;;;;;25.42;16.98;;;13.40;93.10;;;;;;5055133;28;20029;-48
2022/10/30 02:22:52;;;;;;;25.60;16.45;;;13.40;93.10;;;;;;5055354;28;20480;-48
2022/10/30 02:25:19;;;;;;;20.65;14.93;;;13.40;93.10;;;;;;5036281;28;20029;-50
2022/10/30 02:27:45;;;;;;;20.80;16.42;;;13.40;93.10;;;;;;5031214;28;20037;-50
2022/10/30 02:30:12;;;;;;;19.58;16.27;;;13.30;93.10;;;;;;5023498;28;20040;-50
2022/10/30 02:32:38;;;;;;;27.23;15.88;;;13.30;93.10;;;;;;5054813;28;20036;-49
2022/10/30 02:35:05;;;;;;;26.50;16.35;;;13.30;93.10;;;;;;5054966;28;20102;-48
2022/10/30 02:37:34;;;;;;;21.08;16.02;;;13.30;93.10;;;;;;5055589;28;20021;-51
2022/10/30 02:40:03;;;;;;;25.05;16.02;;;13.30;93.10;;;;;;5054726;28;20020;-48
2022/10/30 02:42:29;;;;;;;24.25;15.93;;;13.30;93.00;;;;;;5054977;28;20047;-49
2022/10/30 02:44:56;;;;;;;32.28;17.65;;;13.20;93.10;;;;;;5036300;28;20033;-51
2022/10/30 02:47:23;;;;;;;28.02;16.13;;;13.20;93.10;;;;;;5054533;28;20091;-47
2022/10/30 02:49:51;;;;;;;24.40;16.85;;;13.20;93.00;;;;;;5054266;28;20059;-50
2022/10/30 02:52:20;;;;;;;18.73;15.27;;;13.20;93.10;;;;;;5054601;28;20060;-48
2022/10/30 02:54:47;;;;;;;23.50;14.90;;;13.20;93.10;;;;;;5055028;28;20036;-49
2022/10/30 02:57:14;;;;;;;22.20;16.90;;;13.20;93.00;;;;;;5055628;28;20091;-49
2022/10/30 02:59:43;;;;;;;24.95;17.23;;;13.20;93.10;;;;;;5053988;28;20024;-49
2022/10/30 03:02:14;;;;;;;22.87;15.37;;;13.20;93.10;;;;;;5054411;28;20029;-51
2022/10/30 03:04:40;;;;;;;23.88;16.85;;;13.20;93.10;;;;;;5037684;28;20442;-47
2022/10/30 03:07:08;;;;;;;22.48;15.88;;;13.20;93.00;;;;;;5049624;28;20095;-48
2022/10/30 03:09:34;;;;;;;26.05;15.32;;;13.20;93.10;;;;;;5046453;28;20083;-51
2022/10/30 03:12:01;;;;;;;24.33;17.58;;;13.20;93.10;;;;;;5037955;28;20025;-49
2022/10/30 03:14:27;;;;;;;24.02;16.15;;;13.20;93.00;;;;;;5055019;28;20021;-49
2022/10/30 03:16:52;;;;;;;30.45;16.60;;;13.10;93.00;;;;;;5053327;28;20449;-49
2022/10/30 03:19:19;;;;;;;25.83;16.30;;;13.10;93.00;;;;;;5054416;28;20079;-51
2022/10/30 03:21:49;;;;;;;26.20;15.48;;;13.10;93.00;;;;;;5054853;28;20518;-48
2022/10/30 03:24:17;;;;;;;26.17;15.65;;;13.10;93.00;;;;;;5053732;28;20033;-49
2022/10/30 03:26:46;;;;;;;21.80;16.08;;;13.10;93.00;;;;;;5055033;28;20049;-48
2022/10/30 03:29:14;;;;;;;21.63;15.82;;;13.10;93.00;;;;;;5052468;28;20551;-48
2022/10/30 03:31:42;;;;;;;22.67;14.23;;;13.10;93.00;;;;;;5037450;28;20033;-48
2022/10/30 03:34:09;;;;;;;21.02;15.38;;;13.00;93.00;;;;;;5051699;28;20112;-48
2022/10/30 03:36:39;;;;;;;21.88;14.40;;;13.10;93.10;;;;;;5054738;28;20047;-48
2022/10/30 03:39:05;;;;;;;25.75;14.45;;;13.10;93.10;;;;;;5053539;28;20037;-49
2022/10/30 03:41:34;;;;;;;28.52;17.15;;;13.10;93.10;;;;;;5053770;28;20040;-49
2022/10/30 03:44:02;;;;;;;23.43;15.43;;;13.10;93.10;;;;;;5052805;28;20029;-48
2022/10/30 03:46:30;;;;;;;18.20;14.35;;;13.10;93.10;;;;;;5053888;28;20056;-48
2022/10/30 03:48:58;;;;;;;25.23;15.13;;;13.10;93.10;;;;;;5035892;28;20362;-48
2022/10/30 03:51:24;;;;;;;20.52;15.80;;;13.10;93.10;;;;;;5052955;28;20049;-51
2022/10/30 03:53:50;;;;;;;20.25;15.43;;;13.00;93.10;;;;;;5053784;28;20347;-49
2022/10/30 03:56:18;;;;;;;20.35;16.02;;;13.00;93.10;;;;;;5052885;28;20032;-48
2022/10/30 03:58:46;;;;;;;29.98;17.55;;;13.00;93.10;;;;;;5053583;28;20347;-48
2022/10/30 04:01:13;;;;;;;25.23;15.57;;;13.00;93.00;;;;;;5053097;28;20033;-48
2022/10/30 04:03:40;;;;;;;26.60;15.45;;;13.00;93.00;;;;;;5053274;28;20079;-48
2022/10/30 04:06:08;;;;;;;25.77;16.90;;;13.00;93.00;;;;;;5043074;28;20029;-48
2022/10/30 04:08:38;;;;;;;21.38;15.68;;;13.00;93.00;;;;;;5052832;28;20041;-49
2022/10/30 04:11:04;;;;;;;19.50;16.13;;;13.00;93.00;;;;;;5050977;28;20041;-49
2022/10/30 04:13:31;;;;;;;23.55;15.13;;;13.00;93.00;;;;;;5019103;28;20029;-49
2022/10/30 04:15:58;;;;;;;23.15;15.80;;;12.90;93.00;;;;;;5052315;28;20458;-50
2022/10/30 04:18:25;;;;;;;24.23;15.73;;;12.90;93.00;;;;;;5049432;28;20871;-51
2022/10/30 04:20:54;;;;;;;19.60;14.77;;;13.00;93.00;;;;;;5035887;28;20343;-49
2022/10/30 04:23:28;;;;;;;23.65;15.65;;;12.90;93.00;;;;;;5053100;28;20125;-48
2022/10/30 04:25:54;;;;;;;27.10;16.38;;;12.90;93.00;;;;;;5032712;28;20101;-48
2022/10/30 04:28:24;;;;;;;23.15;16.02;;;12.90;93.10;;;;;;5018323;28;20024;-48
2022/10/30 04:30:51;;;;;;;19.98;15.38;;;12.90;93.10;;;;;;5053106;28;20145;-52
2022/10/30 04:33:18;;;;;;;17.75;14.05;;;12.90;93.10;;;;;;5033761;28;20343;-50
2022/10/30 04:35:45;;;;;;;22.73;15.25;;;12.90;93.10;;;;;;5052308;28;20028;-48
2022/10/30 04:38:13;;;;;;;22.15;15.27;;;12.90;93.10;;;;;;5053675;28;20473;-49
2022/10/30 04:40:40;;;;;;;22.95;14.75;;;12.90;93.10;;;;;;5035379;28;20037;-50
2022/10/30 04:43:08;;;;;;;21.58;15.57;;;12.90;93.10;;;;;;5032045;28;20106;-48
2022/10/30 04:45:35;;;;;;;22.08;15.25;;;12.90;93.10;;;;;;5033081;28;20037;-51
2022/10/30 04:48:05;;;;;;;26.17;16.00;;;12.90;93.10;;;;;;5016496;28;20620;-49
2022/10/30 04:50:34;;;;;;;26.42;15.65;;;12.90;93.10;;;;;;5024869;28;20111;-50
2022/10/30 04:53:09;;;;;;;23.83;14.60;;;12.90;93.10;;;;;;5032271;28;20045;-49
2022/10/30 04:55:35;;;;;;;21.38;15.20;;;12.90;93.10;;;;;;5032317;28;20029;-52
2022/10/30 04:58:01;;;;;;;22.33;15.15;;;12.90;93.10;;;;;;5032404;28;20032;-49
2022/10/30 05:00:30;;;;;;;22.73;15.98;;;12.90;93.20;;;;;;5025660;28;20490;-49
2022/10/30 05:03:01;;;;;;;19.70;14.77;;;12.90;93.20;;;;;;5033273;28;20338;-48
2022/10/30 05:05:27;;;;;;;20.85;15.63;;;13.00;93.10;;;;;;5014905;28;20363;-51
2022/10/30 05:07:56;;;;;;;20.30;14.35;;;12.90;93.10;;;;;;5032206;28;20131;-52
2022/10/30 05:10:23;;;;;;;23.23;15.60;;;13.00;93.10;;;;;;5031780;28;20032;-48
2022/10/30 05:12:52;;;;;;;18.33;13.63;;;12.90;93.10;;;;;;5031558;28;20030;-50
2022/10/30 05:15:21;;;;;;;24.63;15.02;;;12.90;93.10;;;;;;5032012;28;20029;-49
2022/10/30 05:17:51;;;;;;;18.60;13.73;;;12.90;93.10;;;;;;5032856;28;20026;-50
2022/10/30 05:20:19;;;;;;;24.00;15.10;;;12.90;93.10;;;;;;5031161;28;20088;-48
2022/10/30 05:22:53;;;;;;;25.48;16.27;;;12.90;93.10;;;;;;5032703;28;20112;-50
2022/10/30 05:25:22;;;;;;;25.65;15.20;;;12.90;93.10;;;;;;5047325;28;20079;-48
2022/10/30 05:27:49;;;;;;;24.10;14.75;;;12.90;93.10;;;;;;5032405;28;20087;-49
2022/10/30 05:30:17;;;;;;;19.08;14.35;;;12.90;93.00;;;;;;5031601;28;20065;-49
2022/10/30 05:32:44;;;;;;;22.52;14.25;;;12.90;93.10;;;;;;5032228;28;20534;-48
2022/10/30 05:35:11;;;;;;;22.45;14.25;;;12.90;93.00;;;;;;5031077;28;20029;-49
2022/10/30 05:37:38;;;;;;;21.20;14.30;;;12.90;93.00;;;;;;5032287;28;20022;-48
2022/10/30 05:40:06;;;;;;;21.75;13.90;;;12.90;93.00;;;;;;5029759;28;20732;-49
2022/10/30 05:42:35;;;;;;;24.35;15.55;;;12.80;93.00;;;;;;5030565;28;20076;-51
2022/10/30 05:45:03;;;;;;;24.60;14.90;;;12.80;93.00;;;;;;5031387;28;20049;-49
2022/10/30 05:47:31;;;;;;;18.30;14.80;;;12.80;93.00;;;;;;5031454;28;20026;-52
2022/10/30 16:47:28;;;;;;;19.70;15.85;;;15.10;92.50;;;;;;5054881;28;20490;-48
2022/10/30 16:50:00;;;;;;;23.00;15.50;;;15.20;92.70;;;;;;5055613;28;20047;-47
2022/10/30 16:52:34;;;;;;;21.25;15.70;;;15.20;92.70;;;;;;5049560;28;20037;-47
2022/10/30 16:55:18;;;;;;;20.98;15.10;;;15.20;92.70;;;;;;5051013;28;20495;-46
2022/10/30 16:57:53;;;;;;;23.35;17.50;;;15.10;92.70;;;;;;5066666;28;20064;-47
2022/10/30 17:00:21;;;;;;;27.83;16.73;;;15.20;92.70;;;;;;5052335;28;20041;-47
2022/10/30 17:02:52;;;;;;;24.52;17.23;;;15.10;92.70;;;;;;5058880;28;20455;-48
2022/10/30 17:05:34;;;;;;;20.27;16.38;;;15.00;92.70;;;;;;5048860;28;20345;-46
2022/10/30 17:08:20;;;;;;;24.42;17.20;;;15.00;92.70;;;;;;5049271;28;20450;-47
2022/10/30 17:11:05;;;;;;;21.80;17.15;;;14.90;92.70;;;;;;5054569;28;20068;-47
2022/10/30 17:14:20;;;;;;;24.15;16.90;;;14.90;92.70;;;;;;5054867;28;20071;-47
2022/10/30 17:17:01;;;;;;;23.38;17.73;;;14.90;92.80;;;;;;5055332;28;20111;-49
2022/10/30 17:19:29;;;;;;;23.27;16.38;;;14.80;92.80;;;;;;5054898;28;20064;-47
2022/10/30 17:21:57;;;;;;;18.65;15.23;;;14.80;92.80;;;;;;5051196;28;20025;-47
2022/10/30 17:24:31;;;;;;;26.10;17.80;;;14.70;92.70;;;;;;5038988;28;20033;-48
2022/10/30 17:26:59;;;;;;;22.02;15.25;;;14.60;92.70;;;;;;5054128;28;20128;-46
2022/10/30 17:29:46;;;;;;;20.33;16.42;;;14.60;92.80;;;;;;5050062;28;20094;-50
2022/10/30 17:32:41;;;;;;;21.88;16.85;;;14.50;92.70;;;;;;5054477;28;20028;-48
2022/10/30 17:35:19;;;;;;;26.20;18.52;;;14.50;92.80;;;;;;5047959;28;20040;-46
2022/10/30 17:37:44;;;;;;;24.67;19.13;;;14.50;92.90;;;;;;5059030;28;20052;-46
2022/10/30 17:40:14;;;;;;;25.50;17.15;;;14.50;93.00;;;;;;5052552;28;20026;-50
2022/10/30 17:42:40;;;;;;;20.92;16.73;;;14.50;92.90;;;;;;5050548;28;20037;-48
2022/10/30 17:45:12;;;;;;;22.00;16.90;;;14.40;92.90;;;;;;5051176;28;20041;-46
2022/10/30 17:47:38;;;;;;;20.73;16.88;;;14.40;92.90;;;;;;5051299;28;20454;-46
2022/10/30 17:50:06;;;;;;;22.60;17.33;;;14.40;92.90;;;;;;5048470;28;20063;-46
2022/10/30 17:52:36;;;;;;;29.58;20.17;;;14.40;92.90;;;;;;5049045;28;20029;-46
2022/10/30 17:55:21;;;;;;;23.30;18.60;;;14.40;93.00;;;;;;5057664;28;20044;-47
2022/10/30 17:57:47;;;;;;;23.75;18.50;;;14.40;93.00;;;;;;5024995;28;20498;-49
2022/10/30 18:00:14;;;;;;;25.50;20.02;;;14.30;93.10;;;;;;5039524;28;20095;-48
2022/10/30 18:02:41;;;;;;;25.02;18.58;;;14.40;93.10;;;;;;5031101;28;20076;-48
2022/10/30 18:05:18;;;;;;;23.30;19.38;;;14.40;93.10;;;;;;5044033;28;20060;-46
2022/10/30 18:07:45;;;;;;;23.27;18.83;;;14.30;93.10;;;;;;5038278;28;20075;-46
2022/10/30 18:10:13;;;;;;;25.08;19.58;;;14.30;93.10;;;;;;5039603;28;20033;-47
2022/10/30 18:12:40;;;;;;;24.23;18.17;;;14.30;93.20;;;;;;5040900;28;20029;-46
2022/10/30 18:15:25;;;;;;;24.95;19.27;;;14.30;93.10;;;;;;5034892;28;20022;-50
2022/10/30 18:17:53;;;;;;;22.30;19.45;;;14.30;93.20;;;;;;5040332;28;20057;-48
2022/10/30 18:20:21;;;;;;;24.77;19.23;;;14.20;93.30;;;;;;5039067;28;20032;-48
2022/10/30 18:22:48;;;;;;;26.50;19.13;;;14.20;93.20;;;;;;5040705;28;20509;-47
2022/10/30 18:25:34;;;;;;;26.92;19.90;;;14.30;93.30;;;;;;5035352;28;20065;-46
2022/10/30 18:28:02;;;;;;;29.33;20.95;;;14.30;93.30;;;;;;5042978;28;20374;-48
2022/10/30 18:30:27;;;;;;;25.80;20.25;;;14.30;93.30;;;;;;5042642;28;20025;-49
2022/10/30 18:32:55;;;;;;;30.77;19.73;;;14.30;93.30;;;;;;5043964;28;20509;-46
2022/10/30 18:35:25;;;;;;;29.52;21.20;;;14.30;93.30;;;;;;5038557;28;20045;-46
2022/10/30 18:37:51;;;;;;;34.45;21.65;;;14.30;93.40;;;;;;5040602;28;20512;-46
2022/10/30 18:40:18;;;;;;;27.25;20.35;;;14.30;93.30;;;;;;5037626;28;20060;-46
2022/10/30 18:42:48;;;;;;;29.13;20.25;;;14.30;93.30;;;;;;5039647;28;20124;-46
2022/10/30 18:45:27;;;;;;;25.98;21.65;;;14.20;93.30;;;;;;5035552;28;20046;-46
2022/10/30 18:47:55;;;;;;;30.33;23.58;;;14.20;93.30;;;;;;5037697;28;20041;-46
2022/10/30 18:50:34;;;;;;;31.95;22.70;;;14.20;93.30;;;;;;5033420;28;20115;-46
2022/10/30 18:53:03;;;;;;;28.58;23.75;;;14.30;93.40;;;;;;5041798;28;20459;-48
2022/10/30 18:55:48;;;;;;;34.28;26.77;;;14.30;93.50;;;;;;5033693;28;20091;-48
2022/10/30 18:58:14;;;;;;;30.02;24.77;;;14.40;93.60;;;;;;5038732;28;20052;-46
2022/10/30 19:00:43;;;;;;;31.30;23.65;;;14.40;93.50;;;;;;5041431;28;20156;-46
2022/10/30 19:03:10;;;;;;;28.50;22.33;;;14.40;93.50;;;;;;5037257;28;20387;-46
2022/10/30 19:05:46;;;;;;;29.85;24.45;;;14.40;93.50;;;;;;5037402;28;20029;-46
2022/10/30 19:08:14;;;;;;;30.02;23.20;;;14.40;93.50;;;;;;5036549;28;20079;-46
2022/10/30 19:10:43;;;;;;;30.30;23.30;;;14.40;93.50;;;;;;5038171;28;20105;-46
2022/10/30 19:13:17;;;;;;;29.70;22.85;;;14.40;93.50;;;;;;5012723;28;20026;-45
2022/10/30 19:15:50;;;;;;;28.95;23.02;;;14.30;93.50;;;;;;5039239;28;20045;-46
2022/10/30 19:18:19;;;;;;;28.92;23.92;;;14.30;93.50;;;;;;5042978;28;20029;-46
2022/10/30 19:20:46;;;;;;;29.43;23.97;;;14.30;93.50;;;;;;5033700;28;20046;-46
2022/10/30 19:23:27;;;;;;;33.38;24.25;;;14.30;93.50;;;;;;5038432;28;20037;-46
2022/10/30 19:25:54;;;;;;;29.83;24.52;;;14.30;93.50;;;;;;5037125;28;20025;-45
2022/10/30 19:28:22;;;;;;;34.60;27.05;;;14.20;93.50;;;;;;5041615;28;20040;-46
2022/10/30 19:30:51;;;;;;;36.42;25.35;;;14.20;93.60;;;;;;5039386;28;20104;-47
2022/10/30 19:33:23;;;;;;;35.05;25.48;;;14.30;93.60;;;;;;5039699;28;20482;-48
2022/10/30 19:36:24;;;;;;;31.80;25.42;;;14.30;93.70;;;;;;5040816;28;20028;-46
2022/10/30 19:38:59;;;;;;;35.47;26.65;;;14.30;93.80;;;;;;5037341;28;20043;-49
2022/10/30 19:41:26;;;;;;;34.40;26.52;;;14.30;93.80;;;;;;5038295;28;20520;-48
2022/10/30 19:43:53;;;;;;;34.20;27.10;;;14.40;93.80;;;;;;5037964;28;20117;-47
2022/10/30 19:46:20;;;;;;;34.50;26.35;;;14.40;93.80;;;;;;5038943;28;20500;-46
2022/10/30 19:48:46;;;;;;;29.85;26.17;;;14.40;93.80;;;;;;5042392;28;20064;-45
2022/10/30 19:51:13;;;;;;;34.47;27.67;;;14.40;93.80;;;;;;5039240;28;20016;-46
2022/10/30 19:53:42;;;;;;;34.05;26.30;;;14.40;93.90;;;;;;5029723;28;20039;-46
2022/10/30 19:56:11;;;;;;;36.20;27.38;;;14.40;93.90;;;;;;5035816;28;20060;-47
2022/10/30 19:58:39;;;;;;;31.50;26.33;;;14.40;93.90;;;;;;5038068;28;20033;-47
2022/10/30 20:01:08;;;;;;;29.65;22.85;;;14.40;93.90;;;;;;5045689;28;20532;-46
2022/10/30 20:03:38;;;;;;;38.53;26.77;;;14.40;93.80;;;;;;5038534;28;20049;-45
2022/10/30 20:06:04;;;;;;;33.42;26.13;;;14.40;93.80;;;;;;5033425;28;20454;-48
2022/10/30 20:08:32;;;;;;;32.00;25.65;;;14.30;93.80;;;;;;5037953;28;20036;-50
2022/10/30 20:10:59;;;;;;;30.45;23.38;;;14.30;93.80;;;;;;5037582;28;20100;-46
2022/10/30 20:13:26;;;;;;;29.23;25.33;;;14.30;93.80;;;;;;5035445;28;20029;-47
2022/10/30 20:15:55;;;;;;;28.42;24.13;;;14.30;93.80;;;;;;5023812;28;20116;-45
2022/10/30 20:18:24;;;;;;;30.92;25.05;;;14.20;93.80;;;;;;5042610;28;20039;-46
2022/10/30 20:20:53;;;;;;;30.67;24.52;;;14.20;93.80;;;;;;5034238;28;20087;-45
2022/10/30 20:23:21;;;;;;;29.75;24.55;;;14.20;93.80;;;;;;5032513;28;20029;-45
2022/10/30 20:25:50;;;;;;;32.58;25.15;;;14.20;93.80;;;;;;5043914;28;20068;-46
2022/10/30 20:28:39;;;;;;;28.17;24.98;;;14.20;93.80;;;;;;5039145;28;20065;-47
2022/10/30 20:31:09;;;;;;;27.30;24.40;;;14.20;93.80;;;;;;5037269;28;20053;-45
2022/10/30 20:33:36;;;;;;;36.05;26.25;;;14.20;93.90;;;;;;5043536;28;20402;-45
2022/10/30 20:36:04;;;;;;;34.45;26.20;;;14.20;93.90;;;;;;5034806;28;20091;-46
2022/10/30 20:38:34;;;;;;;36.65;27.10;;;14.30;93.90;;;;;;5035742;28;20032;-46
2022/10/30 20:41:04;;;;;;;31.05;25.70;;;14.30;93.90;;;;;;5032647;28;20361;-46
2022/10/30 20:43:33;;;;;;;31.85;25.80;;;14.30;93.90;;;;;;5040717;28;20063;-45
2022/10/30 20:46:02;;;;;;;36.40;27.27;;;14.30;93.90;;;;;;5037478;28;20123;-46
2022/10/30 20:48:28;;;;;;;29.02;25.60;;;14.30;94.00;;;;;;5015907;28;20398;-47
2022/10/30 20:51:03;;;;;;;30.23;25.67;;;14.40;93.90;;;;;;5034556;28;20462;-45
2022/10/30 20:53:31;;;;;;;36.97;27.95;;;14.40;94.00;;;;;;5033928;28;20025;-48
2022/10/30 20:55:58;;;;;;;28.50;25.40;;;14.40;94.00;;;;;;5043550;28;20342;-45
2022/10/30 20:58:25;;;;;;;33.13;26.60;;;14.40;93.90;;;;;;5046517;28;20088;-45
2022/10/30 21:00:54;;;;;;;31.80;27.10;;;14.40;93.90;;;;;;5023119;28;20041;-49
2022/10/30 21:03:22;;;;;;;31.52;27.65;;;14.40;93.90;;;;;;5040974;28;20096;-46
2022/10/30 21:06:00;;;;;;;33.40;27.20;;;14.40;93.90;;;;;;5042063;28;20037;-49
2022/10/30 21:08:26;;;;;;;28.17;25.17;;;14.40;93.90;;;;;;5026616;28;20036;-45
2022/10/30 21:11:03;;;;;;;32.97;27.48;;;14.40;93.90;;;;;;5042913;28;20037;-47
2022/10/30 21:13:33;;;;;;;31.60;24.92;;;14.40;93.90;;;;;;5040803;28;20025;-47
2022/10/30 21:16:00;;;;;;;;;;;14.40;93.90;;;;;;5022591;28;20033;-46
2022/10/30 21:18:27;;;;;;;37.22;27.50;;;14.40;93.90;;;;;;5039996;28;19948;-46
2022/10/30 21:20:52;;;;;;;40.53;30.42;;;14.40;93.90;;;;;;5035340;28;20025;-48
2022/10/30 21:23:19;;;;;;;32.58;27.70;;;14.50;94.00;;;;;;5039410;28;20041;-46
2022/10/30 21:25:45;;;;;;;39.65;28.67;;;14.50;94.00;;;;;;5031249;28;20041;-45
2022/10/30 21:28:14;;;;;;;33.15;26.88;;;14.50;93.90;;;;;;5037455;28;20043;-45
2022/10/30 21:30:42;;;;;;;34.78;28.10;;;14.50;93.90;;;;;;5039588;28;20025;-45
2022/10/30 21:33:09;;;;;;;36.53;27.08;;;14.40;93.90;;;;;;5035087;28;20029;-45
2022/10/30 21:35:34;;;;;;;38.00;28.90;;;14.50;93.90;;;;;;5040412;28;20777;-45
2022/10/30 21:38:02;;;;;;;37.33;29.00;;;14.40;93.80;;;;;;5041460;28;20025;-45
2022/10/30 21:40:31;;;;;;;35.45;28.38;;;14.40;93.80;;;;;;5043402;28;20143;-45
2022/10/30 21:43:00;;;;;;;46.85;29.42;;;14.40;93.90;;;;;;5049520;28;20033;-45
2022/10/30 21:45:26;;;;;;;43.97;29.45;;;14.40;93.90;;;;;;5049042;28;20103;-47
2022/10/30 21:47:52;;;;;;;37.55;28.92;;;14.40;93.90;;;;;;5038938;28;20037;-48
2022/10/30 21:50:19;;;;;;;41.42;29.60;;;14.40;93.90;;;;;;5041571;28;20056;-46
2022/10/30 21:52:44;;;;;;;34.85;29.15;;;14.50;94.00;;;;;;5044244;28;20435;-46
2022/10/30 21:55:13;;;;;;;44.42;30.73;;;14.50;94.00;;;;;;5042391;28;20120;-46
2022/10/30 21:57:38;;;;;;;41.10;31.95;;;14.50;94.00;;;;;;5037345;28;20033;-48
2022/10/30 22:00:07;;;;;;;35.15;29.70;;;14.50;94.10;;;;;;5054087;28;20438;-46
2022/10/30 22:02:37;;;;;;;43.97;31.48;;;14.50;94.00;;;;;;5041283;28;20037;-47
2022/10/30 22:05:04;;;;;;;39.10;29.85;;;14.50;94.00;;;;;;5034488;28;20455;-49
2022/10/30 22:07:31;;;;;;;44.63;32.45;;;14.40;94.00;;;;;;5035451;28;20049;-47
2022/10/30 22:09:58;;;;;;;43.97;30.83;;;14.50;94.00;;;;;;5035499;28;20029;-46
2022/10/30 22:12:27;;;;;;;42.75;31.55;;;14.40;94.10;;;;;;5047294;28;20460;-47
2022/10/30 22:14:54;;;;;;;43.13;30.35;;;14.40;94.00;;;;;;5055276;28;20050;-47
2022/10/30 22:17:20;;;;;;;39.28;30.02;;;14.40;94.00;;;;;;5041708;28;20044;-46
2022/10/30 22:19:50;;;;;;;43.28;31.75;;;14.40;94.00;;;;;;5034353;28;20026;-46
2022/10/30 22:22:15;;;;;;;40.13;29.05;;;14.40;94.10;;;;;;5033876;28;20634;-47
2022/10/30 22:24:43;;;;;;;53.47;31.50;;;14.40;94.20;;;;;;5035103;28;20037;-46
2022/10/30 22:27:10;;;;;;;44.90;31.63;;;14.40;94.20;;;;;;5034019;28;20112;-49
2022/10/30 22:29:37;;;;;;;42.05;30.42;;;14.40;94.30;;;;;;5034803;28;20029;-47
2022/10/30 22:32:06;;;;;;;44.55;30.27;;;14.40;94.30;;;;;;5037559;28;20124;-46
2022/10/30 22:34:33;;;;;;;41.80;29.20;;;14.40;94.30;;;;;;5034935;28;20034;-46
2022/10/30 22:37:00;;;;;;;49.85;31.15;;;14.40;94.40;;;;;;5034671;28;20053;-45
2022/10/30 22:39:28;;;;;;;51.67;33.05;;;14.40;94.40;;;;;;5033902;28;20095;-46
2022/10/30 22:41:54;;;;;;;51.88;32.28;;;14.40;94.40;;;;;;5043227;28;20067;-46
2022/10/30 22:44:22;;;;;;;50.17;32.08;;;14.40;94.40;;;;;;5054229;28;20028;-47
2022/10/30 22:46:52;;;;;;;44.42;30.67;;;14.50;94.40;;;;;;5049236;28;20366;-46
2022/10/30 22:49:18;;;;;;;45.22;31.38;;;14.50;94.40;;;;;;5038880;28;20029;-46
2022/10/30 22:51:44;;;;;;;51.80;32.53;;;14.40;94.40;;;;;;5034067;28;20048;-46
2022/10/30 22:54:14;;;;;;;40.47;29.58;;;14.40;94.40;;;;;;5034383;28;20029;-47
2022/10/30 22:56:41;;;;;;;51.53;33.78;;;14.40;94.40;;;;;;5034590;28;20025;-47
2022/10/30 22:59:10;;;;;;;55.42;32.88;;;14.40;94.40;;;;;;5034319;28;20025;-46
2022/10/30 23:01:48;;;;;;;52.67;31.67;;;14.40;94.50;;;;;;5035713;28;20033;-46
2022/10/30 23:04:15;;;;;;;42.28;29.20;;;14.40;94.50;;;;;;5034053;28;20033;-47
2022/10/30 23:06:43;;;;;;;43.38;30.98;;;14.40;94.50;;;;;;5033253;28;20049;-46
2022/10/30 23:09:23;;;;;;;54.10;28.65;;;14.40;94.50;;;;;;5041814;28;20454;-46
2022/10/30 23:11:50;;;;;;;48.42;29.20;;;14.40;94.50;;;;;;5054015;28;20357;-46
2022/10/30 23:14:19;;;;;;;44.55;29.15;;;14.40;94.50;;;;;;5051857;28;20020;-49
2022/10/30 23:16:45;;;;;;;53.15;28.38;;;14.40;94.50;;;;;;5046642;28;20574;-45
2022/10/30 23:19:12;;;;;;;50.60;28.67;;;14.40;94.50;;;;;;5033386;28;20033;-46
2022/10/30 23:21:40;;;;;;;44.55;28.40;;;14.40;94.50;;;;;;5033086;28;20033;-48
2022/10/30 23:24:07;;;;;;;45.13;29.20;;;14.40;94.50;;;;;;5034003;28;20033;-47
2022/10/30 23:26:34;;;;;;;43.78;29.00;;;14.40;94.50;;;;;;5032868;28;20029;-47
2022/10/30 23:29:03;;;;;;;49.17;28.00;;;14.40;94.50;;;;;;5016924;28;20033;-49
2022/10/30 23:31:38;;;;;;;43.92;28.95;;;14.40;94.50;;;;;;5019312;28;20029;-46
2022/10/30 23:34:11;;;;;;;39.78;26.17;;;14.40;94.50;;;;;;5033961;28;20025;-48
2022/10/30 23:36:40;;;;;;;42.88;26.02;;;14.30;94.50;;;;;;5045165;28;20040;-48
2022/10/30 23:39:08;;;;;;;38.08;24.05;;;14.30;94.40;;;;;;5036165;28;20033;-46
2022/10/30 23:41:36;;;;;;;39.53;24.88;;;14.30;94.40;;;;;;5036664;28;20108;-46
2022/10/30 23:44:07;;;;;;;40.95;26.38;;;14.20;94.30;;;;;;5037154;28;20026;-47